createdAt,value
2023-03-31T00:01:15.390Z,8.55
2023-03-31T00:03:44.952Z,9.05
2023-03-31T00:06:19.137Z,9.20
2023-03-31T00:08:52.349Z,9.38
2023-03-31T00:11:24.504Z,7.90
2023-03-31T00:13:53.258Z,8.95
2023-03-31T00:16:21.847Z,10.85
2023-03-31T00:18:52.233Z,9.07
2023-03-31T00:21:26.090Z,10.02
2023-03-31T00:24:00.445Z,10.45
2023-03-31T00:26:29.610Z,10.55
2023-03-31T00:28:58.921Z,9.10
2023-03-31T00:31:28.097Z,9.40
2023-03-31T00:33:57.367Z,9.00
2023-03-31T00:36:29.269Z,9.70
2023-03-31T00:39:01.007Z,9.35
2023-03-31T00:41:29.969Z,10.38
2023-03-31T00:44:15.005Z,10.48
2023-03-31T00:46:58.460Z,10.23
2023-03-31T00:49:42.314Z,9.43
2023-03-31T00:52:38.402Z,10.23
2023-03-31T00:55:15.022Z,9.93
2023-03-31T00:57:45.113Z,10.07
2023-03-31T01:00:15.819Z,11.27
2023-03-31T01:02:52.831Z,10.30
2023-03-31T01:05:40.163Z,10.10
2023-03-31T01:08:08.868Z,10.02
2023-03-31T01:10:42.214Z,9.60
2023-03-31T01:15:40.232Z,9.82
2023-03-31T01:18:11.444Z,10.57
2023-03-31T01:21:07.979Z,9.98
2023-03-31T01:26:54.968Z,10.38
2023-03-31T01:29:45.448Z,11.48
2023-03-31T01:32:51.286Z,10.63
2023-03-31T01:35:38.759Z,10.57
2023-03-31T01:38:10.706Z,10.27
2023-03-31T01:41:32.281Z,11.20
2023-03-31T01:44:44.169Z,10.82
2023-03-31T01:47:41.181Z,10.60
2023-03-31T01:50:37.127Z,11.25
2023-03-31T01:53:19.151Z,10.55
2023-03-31T01:56:16.893Z,10.93
2023-03-31T01:58:59.688Z,11.10
2023-03-31T02:01:56.913Z,12.05
2023-03-31T02:04:42.580Z,11.77
2023-03-31T02:07:29.452Z,11.40
2023-03-31T02:10:01.779Z,12.07
2023-03-31T02:12:32.718Z,11.13
2023-03-31T02:15:01.636Z,10.98
2023-03-31T02:17:32.968Z,11.73
2023-03-31T02:20:06.498Z,12.10
2023-03-31T02:22:38.164Z,12.02
2023-03-31T02:25:08.702Z,11.40
2023-03-31T02:27:42.816Z,11.45
2023-03-31T02:30:12.238Z,12.52
2023-03-31T02:32:43.025Z,11.30
2023-03-31T02:35:19.620Z,11.82
2023-03-31T02:37:49.974Z,11.88
2023-03-31T02:40:21.947Z,11.70
2023-03-31T02:42:50.772Z,11.70
2023-03-31T02:45:40.682Z,11.55
2023-03-31T02:48:23.908Z,12.43
2023-03-31T02:51:02.537Z,12.15
2023-03-31T02:53:44.114Z,12.00
2023-03-31T02:56:43.370Z,11.73
2023-03-31T02:59:53.224Z,11.82
2023-03-31T03:02:35.077Z,11.60
2023-03-31T03:05:36.735Z,11.98
2023-03-31T03:08:55.829Z,12.77
2023-03-31T03:11:40.672Z,13.23
2023-03-31T03:17:18.293Z,11.85
2023-03-31T03:19:59.462Z,12.68
2023-03-31T03:22:28.345Z,11.25
2023-03-31T03:24:56.812Z,13.00
2023-03-31T03:27:25.629Z,11.65
2023-03-31T03:29:54.157Z,12.27
2023-03-31T03:32:23.036Z,11.85
2023-03-31T03:34:51.504Z,12.00
2023-03-31T03:37:20.573Z,12.68
2023-03-31T03:39:49.055Z,13.60
2023-03-31T03:42:17.764Z,13.02
2023-03-31T03:44:46.224Z,11.45
2023-03-31T03:47:15.291Z,12.75
2023-03-31T03:49:43.846Z,12.63
2023-03-31T03:52:12.671Z,11.80
2023-03-31T03:54:41.183Z,10.95
2023-03-31T03:57:10.074Z,13.80
2023-03-31T03:59:38.741Z,12.73
2023-03-31T04:02:07.727Z,11.48
2023-03-31T04:04:36.404Z,11.30
2023-03-31T04:07:05.624Z,11.65
2023-03-31T04:09:35.537Z,12.75
2023-03-31T04:12:04.796Z,12.73
2023-03-31T04:14:33.272Z,12.52
2023-03-31T04:17:03.079Z,12.50
2023-03-31T04:19:31.444Z,11.35
2023-03-31T04:22:03.290Z,12.13
2023-03-31T04:24:33.400Z,10.75
2023-03-31T04:27:03.385Z,11.10
2023-03-31T04:29:34.031Z,11.18
2023-03-31T04:32:03.085Z,11.18
2023-03-31T04:34:37.515Z,10.68
2023-03-31T04:37:06.307Z,10.02
2023-03-31T04:39:34.702Z,10.35
2023-03-31T04:42:05.483Z,11.40
2023-03-31T04:44:33.787Z,10.45
2023-03-31T04:47:03.483Z,10.90
2023-03-31T04:49:33.849Z,10.95
2023-03-31T04:52:02.565Z,10.07
2023-03-31T04:54:30.955Z,10.52
2023-03-31T04:56:59.735Z,11.48
2023-03-31T04:59:28.106Z,12.13
2023-03-31T05:01:57.097Z,11.00
2023-03-31T05:04:25.747Z,11.30
2023-03-31T05:06:54.484Z,11.73
2023-03-31T05:09:22.960Z,10.85
2023-03-31T05:11:51.861Z,11.07
2023-03-31T05:14:21.139Z,12.45
2023-03-31T05:16:49.909Z,10.65
2023-03-31T05:19:18.499Z,10.63
2023-03-31T05:21:47.345Z,10.48
2023-03-31T05:24:15.797Z,11.25
2023-03-31T05:26:52.875Z,12.48
2023-03-31T05:29:21.752Z,11.40
2023-03-31T05:31:51.132Z,10.38
2023-03-31T05:34:19.855Z,12.18
2023-03-31T05:36:50.664Z,12.07
2023-03-31T05:39:18.946Z,11.55
2023-03-31T05:41:47.642Z,11.52
2023-03-31T05:44:16.214Z,11.98
2023-03-31T05:46:45.012Z,11.43
2023-03-31T05:49:16.223Z,11.80
2023-03-31T05:51:44.923Z,11.85
2023-03-31T05:54:13.675Z,11.38
2023-03-31T05:56:42.354Z,11.52
2023-03-31T05:59:10.949Z,12.35
2023-03-31T06:01:39.863Z,11.90
2023-03-31T06:04:08.228Z,11.05
2023-03-31T06:06:38.480Z,12.40
2023-03-31T06:09:06.987Z,12.90
2023-03-31T06:11:36.194Z,13.00
2023-03-31T06:14:05.018Z,12.40
2023-03-31T06:16:34.076Z,13.93
2023-03-31T06:19:02.452Z,13.10
2023-03-31T06:21:31.292Z,14.43
2023-03-31T06:24:00.639Z,12.68
2023-03-31T06:26:29.495Z,14.23
2023-03-31T06:28:57.938Z,13.75
2023-03-31T06:31:26.798Z,14.38
2023-03-31T06:33:55.237Z,14.05
2023-03-31T06:36:24.049Z,13.40
2023-03-31T06:38:52.563Z,14.60
2023-03-31T06:41:22.712Z,14.35
2023-03-31T06:43:51.289Z,13.40
2023-03-31T06:46:20.096Z,14.25
2023-03-31T06:48:48.673Z,14.43
2023-03-31T06:51:17.461Z,15.52
2023-03-31T06:53:45.844Z,15.40
2023-03-31T06:56:14.700Z,14.73
2023-03-31T06:58:43.171Z,15.18
2023-03-31T07:01:12.211Z,15.80
2023-03-31T07:03:40.971Z,15.95
2023-03-31T07:06:10.001Z,15.40
2023-03-31T07:08:38.509Z,15.18
2023-03-31T07:11:07.439Z,16.50
2023-03-31T07:13:36.010Z,13.35
2023-03-31T07:16:05.609Z,13.02
2023-03-31T07:18:35.468Z,14.50
2023-03-31T07:21:09.063Z,14.13
2023-03-31T07:23:38.567Z,14.07
2023-03-31T07:26:08.057Z,14.38
2023-03-31T07:28:36.508Z,13.65
2023-03-31T07:31:14.489Z,13.77
2023-03-31T07:33:42.856Z,12.23
2023-03-31T07:36:13.287Z,13.77
2023-03-31T07:38:43.703Z,14.00
2023-03-31T07:41:18.677Z,14.05
2023-03-31T07:43:47.298Z,13.98
2023-03-31T07:46:27.326Z,13.43
2023-03-31T07:48:57.013Z,13.25
2023-03-31T07:51:26.766Z,12.15
2023-03-31T07:53:55.098Z,13.07
2023-03-31T07:56:25.043Z,12.52
2023-03-31T07:58:56.872Z,13.70
2023-03-31T08:01:29.030Z,11.38
2023-03-31T08:03:57.749Z,11.63
2023-03-31T08:06:27.124Z,12.88
2023-03-31T08:08:55.683Z,11.90
2023-03-31T08:11:24.578Z,12.80
2023-03-31T08:13:53.115Z,12.07
2023-03-31T08:16:21.891Z,12.05
2023-03-31T08:18:50.754Z,11.18
2023-03-31T08:21:20.580Z,11.05
2023-03-31T08:23:50.459Z,12.27
2023-03-31T08:26:19.355Z,11.10
2023-03-31T08:28:49.506Z,11.98
2023-03-31T08:31:20.612Z,12.48
2023-03-31T08:33:49.054Z,12.23
2023-03-31T08:36:17.955Z,11.95
2023-03-31T08:38:47.535Z,11.65
2023-03-31T08:41:37.013Z,11.15
2023-03-31T08:44:16.462Z,12.35
2023-03-31T08:46:45.515Z,12.13
2023-03-31T08:49:17.036Z,10.57
2023-03-31T08:51:58.521Z,12.07
2023-03-31T08:54:38.944Z,12.88
2023-03-31T08:57:27.497Z,11.70
2023-03-31T08:59:59.087Z,11.55
2023-03-31T09:02:49.614Z,11.63
2023-03-31T09:05:56.820Z,12.27
2023-03-31T09:08:38.888Z,12.43
2023-03-31T09:11:35.796Z,12.18
2023-03-31T09:14:38.250Z,10.93
2023-03-31T09:17:25.666Z,11.75
2023-03-31T09:20:08.683Z,11.07
2023-03-31T09:22:53.423Z,12.77
2023-03-31T09:25:27.259Z,12.50
2023-03-31T09:27:58.143Z,11.70
2023-03-31T09:30:32.403Z,12.35
2023-03-31T09:33:22.812Z,11.13
2023-03-31T09:35:52.307Z,12.85
2023-03-31T09:38:21.072Z,11.98
2023-03-31T09:40:49.827Z,12.13
2023-03-31T09:43:31.752Z,12.02
2023-03-31T09:46:08.750Z,13.55
2023-03-31T09:48:38.754Z,11.57
2023-03-31T09:51:10.725Z,9.85
2023-03-31T09:53:57.103Z,11.82
2023-03-31T09:56:55.717Z,11.25
2023-03-31T09:59:32.487Z,13.07
2023-03-31T10:02:05.671Z,13.00
2023-03-31T10:04:35.132Z,13.15
2023-03-31T10:07:05.471Z,11.85
2023-03-31T10:09:34.507Z,12.50
2023-03-31T10:12:16.414Z,13.38
2023-03-31T10:14:47.571Z,12.50
2023-03-31T10:17:19.690Z,13.95
2023-03-31T10:19:58.292Z,13.15
2023-03-31T10:22:31.398Z,11.68
2023-03-31T10:25:19.315Z,14.10
2023-03-31T10:27:52.645Z,12.30
2023-03-31T10:33:01.550Z,12.35
2023-03-31T10:35:35.982Z,13.85
2023-03-31T10:38:14.737Z,12.48
2023-03-31T10:40:52.431Z,13.30
2023-03-31T10:43:37.837Z,14.43
2023-03-31T10:46:06.289Z,13.82
2023-03-31T10:48:41.661Z,14.88
2023-03-31T10:51:17.330Z,15.02
2023-03-31T10:53:50.619Z,11.90
2023-03-31T10:56:49.351Z,13.95
2023-03-31T10:59:34.296Z,12.38
2023-03-31T11:02:33.355Z,14.25
2023-03-31T11:05:25.596Z,14.77
2023-03-31T11:08:18.650Z,14.52
2023-03-31T11:11:31.567Z,14.98
2023-03-31T11:14:32.489Z,16.98
2023-03-31T11:17:04.593Z,17.88
2023-03-31T11:19:43.231Z,17.92
2023-03-31T11:22:38.156Z,17.20
2023-03-31T11:25:39.566Z,19.45
2023-03-31T11:28:27.538Z,19.63
2023-03-31T11:31:24.455Z,19.95
2023-03-31T11:34:29.389Z,18.08
2023-03-31T11:37:22.439Z,17.33
2023-03-31T11:40:09.642Z,18.08
2023-03-31T11:42:47.368Z,18.15
2023-03-31T11:45:50.566Z,17.58
2023-03-31T11:48:37.346Z,18.05
2023-03-31T11:51:12.178Z,17.80
2023-03-31T11:53:40.729Z,16.95
2023-03-31T11:56:11.044Z,18.17
2023-03-31T11:58:53.206Z,16.80
2023-03-31T12:01:30.350Z,18.30
2023-03-31T12:04:33.774Z,17.98
2023-03-31T12:07:22.993Z,17.45
2023-03-31T12:10:22.777Z,17.38
2023-03-31T12:13:29.680Z,17.17
2023-03-31T12:16:20.632Z,17.60
2023-03-31T12:19:23.406Z,14.13
2023-03-31T12:22:17.319Z,15.82
2023-03-31T12:24:47.208Z,13.88
2023-03-31T12:27:42.170Z,13.93
2023-03-31T12:30:42.490Z,13.82
2023-03-31T12:33:23.664Z,13.57
2023-03-31T12:36:32.766Z,13.30
2023-03-31T12:39:23.909Z,12.65
2023-03-31T12:42:49.043Z,13.60
2023-03-31T12:45:32.003Z,13.23
2023-03-31T12:51:49.945Z,10.30
2023-03-31T12:54:52.341Z,12.30
2023-03-31T12:57:25.005Z,10.73
2023-03-31T13:02:41.630Z,9.70
2023-03-31T13:05:47.945Z,10.98
2023-03-31T13:09:08.808Z,10.07
2023-03-31T13:11:47.995Z,10.48
2023-03-31T13:14:22.181Z,10.07
2023-03-31T13:16:54.304Z,9.90
2023-03-31T13:19:33.665Z,9.18
2023-03-31T13:22:06.307Z,8.38
2023-03-31T13:24:34.893Z,10.27
2023-03-31T13:27:33.774Z,9.00
2023-03-31T13:30:02.232Z,9.00
2023-03-31T13:32:31.237Z,8.57
2023-03-31T13:35:21.740Z,9.52
2023-03-31T13:38:05.527Z,9.32
2023-03-31T13:41:03.065Z,8.75
2023-03-31T13:44:20.420Z,8.73
2023-03-31T13:47:41.646Z,7.78
2023-03-31T13:50:27.760Z,8.48
2023-03-31T13:53:31.681Z,7.93
2023-03-31T13:56:39.037Z,7.63
2023-03-31T13:59:42.039Z,9.18
2023-03-31T14:02:40.909Z,9.75
2023-03-31T14:05:36.413Z,8.07
2023-03-31T14:08:37.214Z,7.38
2023-03-31T14:11:25.102Z,7.95
2023-03-31T14:14:07.943Z,7.88
2023-03-31T14:17:01.644Z,8.60
2023-03-31T14:19:45.138Z,7.40
2023-03-31T14:22:59.390Z,7.55
2023-03-31T14:25:55.726Z,7.60
2023-03-31T14:28:52.759Z,6.93
2023-03-31T14:31:36.697Z,6.55
2023-03-31T14:34:26.442Z,6.90
2023-03-31T14:37:24.964Z,6.32
2023-03-31T14:39:56.717Z,6.05
2023-03-31T14:42:50.094Z,6.17
2023-03-31T14:45:25.400Z,6.78
2023-03-31T14:47:56.842Z,5.88
2023-03-31T14:50:35.848Z,7.28
2023-03-31T14:53:05.130Z,6.57
2023-03-31T14:55:49.763Z,5.65
2023-03-31T14:58:50.782Z,5.40
2023-03-31T15:01:25.010Z,6.05
2023-03-31T15:03:54.098Z,5.40
2023-03-31T15:06:25.974Z,5.68
2023-03-31T15:08:57.570Z,4.67
2023-03-31T15:11:26.054Z,5.40
2023-03-31T15:14:04.483Z,5.13
2023-03-31T15:16:42.692Z,5.68
2023-03-31T15:19:26.605Z,5.28
2023-03-31T15:22:06.430Z,4.72
2023-03-31T15:24:35.174Z,5.72
2023-03-31T15:27:23.440Z,4.05
2023-03-31T15:29:59.729Z,4.68
2023-03-31T15:32:34.995Z,4.22
2023-03-31T15:35:18.863Z,4.60
2023-03-31T15:37:52.441Z,5.32
2023-03-31T15:40:41.192Z,4.85
2023-03-31T15:45:52.291Z,4.40
2023-03-31T15:48:56.187Z,4.85
2023-03-31T15:51:39.594Z,4.68
2023-03-31T15:54:37.138Z,4.20
2023-03-31T15:57:07.525Z,4.40
2023-03-31T16:02:47.238Z,4.63
2023-03-31T16:08:29.118Z,5.03
2023-03-31T16:11:05.135Z,4.90
2023-03-31T16:13:33.806Z,4.03
2023-03-31T16:16:02.313Z,4.45
2023-03-31T16:18:37.436Z,4.40
2023-03-31T16:21:06.423Z,4.43
2023-03-31T16:23:47.258Z,4.30
2023-03-31T16:26:22.726Z,5.68
2023-03-31T16:28:53.052Z,4.60
2023-03-31T16:31:36.947Z,4.97
2023-03-31T16:34:07.895Z,5.22
2023-03-31T16:36:36.485Z,7.20
2023-03-31T16:39:05.764Z,6.03
2023-03-31T16:41:34.931Z,4.57
2023-03-31T16:44:03.692Z,5.35
2023-03-31T16:46:32.018Z,5.50
2023-03-31T16:49:00.817Z,6.03
2023-03-31T16:51:29.295Z,5.22
2023-03-31T16:53:59.360Z,5.00
2023-03-31T16:56:28.319Z,4.60
2023-03-31T16:58:57.523Z,4.43
2023-03-31T17:01:25.875Z,4.55
2023-03-31T17:03:55.234Z,5.03
2023-03-31T17:06:23.739Z,5.93
2023-03-31T17:08:52.432Z,6.28
2023-03-31T17:11:20.729Z,6.45
2023-03-31T17:13:50.097Z,5.57
2023-03-31T17:16:24.356Z,4.50
2023-03-31T17:19:01.813Z,5.78
2023-03-31T17:21:30.239Z,6.57
2023-03-31T17:24:01.568Z,5.50
2023-03-31T17:26:31.044Z,5.78
2023-03-31T17:29:00.795Z,5.50
2023-03-31T17:31:31.078Z,5.65
2023-03-31T17:33:59.972Z,6.50
2023-03-31T17:36:28.493Z,6.07
2023-03-31T17:38:57.162Z,6.50
2023-03-31T17:41:25.736Z,6.00
2023-03-31T17:43:54.466Z,5.78
2023-03-31T17:46:23.142Z,7.32
2023-03-31T17:48:53.926Z,8.65
2023-03-31T17:51:23.318Z,6.40
2023-03-31T17:53:52.254Z,7.55
2023-03-31T17:56:20.863Z,6.88
2023-03-31T17:58:49.608Z,7.80
2023-03-31T18:01:19.320Z,7.20
2023-03-31T18:03:48.214Z,7.63
2023-03-31T18:06:18.198Z,6.97
2023-03-31T18:08:47.505Z,6.32
2023-03-31T18:11:15.897Z,8.02
2023-03-31T18:13:44.909Z,7.80
2023-03-31T18:16:13.581Z,9.18
2023-03-31T18:18:42.750Z,9.40
2023-03-31T18:21:13.314Z,7.63
2023-03-31T18:23:42.227Z,9.32
2023-03-31T18:26:12.020Z,8.52
2023-03-31T18:28:43.883Z,8.93
2023-03-31T18:31:12.715Z,10.65
2023-03-31T18:33:42.051Z,8.60
2023-03-31T18:36:19.224Z,9.70
2023-03-31T18:38:51.618Z,8.85
2023-03-31T18:41:20.833Z,10.10
2023-03-31T18:43:52.977Z,9.52
2023-03-31T18:46:21.942Z,9.43
2023-03-31T18:48:51.602Z,9.02
2023-03-31T18:51:20.415Z,9.18
2023-03-31T18:53:52.184Z,10.23
2023-03-31T18:56:23.455Z,9.90
2023-03-31T18:58:52.953Z,10.13
2023-03-31T19:01:21.438Z,10.50
2023-03-31T19:03:50.340Z,10.25
2023-03-31T19:06:21.204Z,10.75
2023-03-31T19:08:50.038Z,9.90
2023-03-31T19:11:19.028Z,10.15
2023-03-31T19:13:47.993Z,10.48
2023-03-31T19:16:17.798Z,9.18
2023-03-31T19:18:47.237Z,9.70
2023-03-31T19:21:15.814Z,10.55
2023-03-31T19:23:44.747Z,10.90
2023-03-31T19:26:18.525Z,10.18
2023-03-31T19:28:48.526Z,10.20
2023-03-31T19:31:17.107Z,10.77
2023-03-31T19:33:46.529Z,10.13
2023-03-31T19:36:15.135Z,10.20
2023-03-31T19:38:44.128Z,10.25
2023-03-31T19:41:12.618Z,9.60
2023-03-31T19:43:41.315Z,10.00
2023-03-31T19:46:09.850Z,10.38
2023-03-31T19:48:38.770Z,9.48
2023-03-31T19:51:08.676Z,9.98
2023-03-31T19:53:38.583Z,9.85
2023-03-31T19:56:16.141Z,8.63
2023-03-31T19:58:45.157Z,10.80
2023-03-31T20:01:27.593Z,10.02
2023-03-31T20:06:29.001Z,9.88
2023-03-31T20:11:32.314Z,9.98
2023-03-31T20:14:01.446Z,9.32
2023-03-31T20:16:31.224Z,9.30
2023-03-31T20:19:05.293Z,9.75
2023-03-31T20:21:36.180Z,8.95
2023-03-31T20:24:05.870Z,9.15
2023-03-31T20:26:34.912Z,8.82
2023-03-31T20:29:04.194Z,8.45
2023-03-31T20:31:36.861Z,10.32
2023-03-31T20:34:08.965Z,9.55
2023-03-31T20:36:37.425Z,9.63
2023-03-31T20:39:06.686Z,9.43
2023-03-31T20:41:37.432Z,9.82
2023-03-31T20:44:07.880Z,10.38
2023-03-31T20:46:37.439Z,9.68
2023-03-31T20:49:07.696Z,9.95
2023-03-31T20:51:39.878Z,10.18
2023-03-31T20:54:08.868Z,9.70
2023-03-31T20:56:41.721Z,10.88
2023-03-31T20:59:15.415Z,10.90
2023-03-31T21:01:45.427Z,10.48
2023-03-31T21:04:14.379Z,10.57
2023-03-31T21:06:45.661Z,10.18
2023-03-31T21:09:15.400Z,10.00
2023-03-31T21:11:44.080Z,10.93
2023-03-31T21:14:16.607Z,10.43
2023-03-31T21:16:45.262Z,10.40
2023-03-31T21:19:14.117Z,9.95
2023-03-31T21:21:43.562Z,10.55
2023-03-31T21:24:13.368Z,10.40
2023-03-31T21:26:42.007Z,10.63
2023-03-31T21:29:10.921Z,11.38
2023-03-31T21:31:39.506Z,11.25
2023-03-31T21:34:09.302Z,10.93
2023-03-31T21:36:37.753Z,11.38
2023-03-31T21:39:06.615Z,10.23
2023-03-31T21:41:35.174Z,11.85
2023-03-31T21:44:04.479Z,11.32
2023-03-31T21:46:33.828Z,11.10
2023-03-31T21:49:03.211Z,10.75
2023-03-31T21:51:31.879Z,12.15
2023-03-31T21:54:00.648Z,11.60
2023-03-31T21:56:31.919Z,11.77
2023-03-31T21:59:02.641Z,10.90
2023-03-31T22:01:31.720Z,12.48
2023-03-31T22:04:00.872Z,12.80
2023-03-31T22:06:29.578Z,11.93
2023-03-31T22:08:58.641Z,10.98
2023-03-31T22:11:28.882Z,12.25
2023-03-31T22:13:57.983Z,11.25
2023-03-31T22:16:26.985Z,11.95
2023-03-31T22:18:56.159Z,10.55
2023-03-31T22:21:41.991Z,13.13
2023-03-31T22:24:12.555Z,12.18
2023-03-31T22:26:41.225Z,12.27
2023-03-31T22:29:15.131Z,12.38
2023-03-31T22:31:43.629Z,12.73
2023-03-31T22:34:12.527Z,13.32
2023-03-31T22:36:41.036Z,13.23
2023-03-31T22:39:10.570Z,12.80
2023-03-31T22:41:39.052Z,13.18
2023-03-31T22:44:08.509Z,11.93
2023-03-31T22:46:38.058Z,12.88
2023-03-31T22:49:06.843Z,12.60
2023-03-31T22:51:35.348Z,12.85
2023-03-31T22:54:04.355Z,13.55
2023-03-31T22:56:32.905Z,13.30
2023-03-31T22:59:02.484Z,12.68
2023-03-31T23:01:31.134Z,12.80
2023-03-31T23:04:01.451Z,13.07
2023-03-31T23:06:31.483Z,13.23
2023-03-31T23:09:01.580Z,11.93
2023-03-31T23:11:30.684Z,13.10
2023-03-31T23:13:59.442Z,12.43
2023-03-31T23:16:27.906Z,12.48
2023-03-31T23:18:56.822Z,12.63
2023-03-31T23:21:27.452Z,13.55
2023-03-31T23:23:58.880Z,13.25
2023-03-31T23:26:28.097Z,13.88
2023-03-31T23:28:57.549Z,13.13
2023-03-31T23:31:31.421Z,13.52
2023-03-31T23:34:00.726Z,14.07
2023-03-31T23:36:29.397Z,12.88
2023-03-31T23:38:58.223Z,13.43
2023-03-31T23:41:26.863Z,13.45
2023-03-31T23:43:57.930Z,14.57
2023-03-31T23:46:26.657Z,12.57
2023-03-31T23:48:56.024Z,13.27
2023-03-31T23:51:24.600Z,13.60
2023-03-31T23:53:53.427Z,13.30
2023-03-31T23:56:22.521Z,12.80
2023-03-31T23:58:51.464Z,14.00
